createdAt,value
2023-03-10T00:00:51.381Z,2.10
2023-03-10T00:03:21.405Z,2.10
2023-03-10T00:05:51.741Z,2.10
2023-03-10T00:08:22.595Z,2.10
2023-03-10T00:10:51.475Z,2.10
2023-03-10T00:13:24.386Z,2.10
2023-03-10T00:15:55.132Z,2.10
2023-03-10T00:18:25.872Z,2.00
2023-03-10T00:20:57.474Z,2.00
2023-03-10T00:23:37.473Z,2.00
2023-03-10T00:26:08.893Z,2.00
2023-03-10T00:28:41.546Z,2.10
2023-03-10T00:31:17.722Z,2.00
2023-03-10T00:33:47.064Z,2.00
2023-03-10T00:36:23.193Z,2.10
2023-03-10T00:38:54.656Z,2.10
2023-03-10T00:41:26.311Z,2.00
2023-03-10T00:44:03.056Z,2.00
2023-03-10T00:46:37.159Z,2.00
2023-03-10T00:49:07.903Z,2.00
2023-03-10T00:51:39.482Z,1.90
2023-03-10T00:54:11.045Z,2.00
2023-03-10T00:56:42.990Z,1.90
2023-03-10T00:59:23.209Z,1.90
2023-03-10T01:01:52.646Z,1.90
2023-03-10T01:04:26.124Z,1.90
2023-03-10T01:07:03.228Z,1.90
2023-03-10T01:09:32.942Z,1.80
2023-03-10T01:12:11.577Z,1.80
2023-03-10T01:14:46.239Z,1.80
2023-03-10T01:17:15.916Z,1.80
2023-03-10T01:22:40.536Z,1.70
2023-03-10T01:25:18.198Z,1.70
2023-03-10T01:27:51.750Z,1.70
2023-03-10T01:30:23.618Z,1.70
2023-03-10T01:32:55.228Z,1.70
2023-03-10T01:35:29.632Z,1.70
2023-03-10T01:38:07.750Z,1.70
2023-03-10T01:40:51.636Z,1.60
2023-03-10T01:43:33.712Z,1.70
2023-03-10T01:46:52.356Z,1.70
2023-03-10T01:49:34.911Z,1.60
2023-03-10T01:52:14.634Z,1.60
2023-03-10T01:54:53.806Z,1.50
2023-03-10T01:57:30.813Z,1.60
2023-03-10T02:00:09.127Z,1.50
2023-03-10T02:02:43.032Z,1.60
2023-03-10T02:05:32.390Z,1.60
2023-03-10T02:08:04.734Z,1.60
2023-03-10T02:10:37.735Z,1.60
2023-03-10T02:13:08.131Z,1.60
2023-03-10T02:15:44.909Z,1.60
2023-03-10T02:18:23.517Z,1.50
2023-03-10T02:21:01.406Z,1.50
2023-03-10T02:23:45.040Z,1.60
2023-03-10T02:26:26.522Z,1.60
2023-03-10T02:29:02.555Z,1.50
2023-03-10T02:31:34.396Z,1.50
2023-03-10T02:34:21.518Z,1.50
2023-03-10T02:36:50.581Z,1.50
2023-03-10T02:39:23.679Z,1.50
2023-03-10T02:42:02.586Z,1.50
2023-03-10T02:44:40.210Z,1.50
2023-03-10T02:47:12.261Z,1.60
2023-03-10T02:49:42.765Z,1.60
2023-03-10T02:52:20.906Z,1.50
2023-03-10T02:54:52.085Z,1.60
2023-03-10T02:57:32.326Z,1.60
2023-03-10T03:00:09.016Z,1.50
2023-03-10T03:02:40.267Z,1.60
2023-03-10T03:05:14.435Z,1.60
2023-03-10T03:07:46.106Z,1.60
2023-03-10T03:13:03.336Z,1.70
2023-03-10T03:15:43.784Z,1.70
2023-03-10T03:18:22.517Z,1.70
2023-03-10T03:20:55.587Z,1.80
2023-03-10T03:23:29.502Z,1.80
2023-03-10T03:26:02.688Z,1.80
2023-03-10T03:28:39.795Z,1.80
2023-03-10T03:31:18.278Z,1.80
2023-03-10T03:33:49.843Z,1.80
2023-03-10T03:36:20.913Z,1.70
2023-03-10T03:38:52.012Z,1.80
2023-03-10T03:41:21.765Z,1.70
2023-03-10T03:43:52.082Z,1.70
2023-03-10T03:46:28.929Z,1.70
2023-03-10T03:48:57.647Z,1.70
2023-03-10T03:51:30.263Z,1.70
2023-03-10T03:54:01.442Z,1.70
2023-03-10T03:56:55.125Z,1.70
2023-03-10T03:59:34.576Z,1.70
2023-03-10T04:02:14.250Z,1.60
2023-03-10T04:04:44.642Z,1.60
2023-03-10T04:07:19.462Z,1.60
2023-03-10T04:09:49.395Z,1.70
2023-03-10T04:12:20.216Z,1.60
2023-03-10T04:17:40.185Z,1.60
2023-03-10T04:20:14.451Z,1.60
2023-03-10T04:22:52.864Z,1.70
2023-03-10T04:25:25.536Z,1.60
2023-03-10T04:28:01.803Z,1.60
2023-03-10T04:30:32.096Z,1.60
2023-03-10T04:33:04.887Z,1.60
2023-03-10T04:35:35.235Z,1.60
2023-03-10T04:38:11.880Z,1.60
2023-03-10T04:40:44.407Z,1.50
2023-03-10T04:43:22.637Z,1.60
2023-03-10T04:46:04.196Z,1.60
2023-03-10T04:48:37.228Z,1.50
2023-03-10T04:51:08.857Z,1.60
2023-03-10T04:53:39.677Z,1.60
2023-03-10T04:56:11.328Z,1.60
2023-03-10T05:01:33.708Z,1.70
2023-03-10T05:04:08.978Z,1.70
2023-03-10T05:06:47.187Z,1.70
2023-03-10T05:09:32.004Z,1.70
2023-03-10T05:12:04.477Z,1.70
2023-03-10T05:14:33.024Z,1.70
2023-03-10T05:17:10.802Z,1.70
2023-03-10T05:19:42.492Z,1.70
2023-03-10T05:22:16.714Z,1.80
2023-03-10T05:24:48.403Z,1.70
2023-03-10T05:27:26.454Z,1.80
2023-03-10T05:30:08.122Z,1.80
2023-03-10T05:32:41.834Z,1.80
2023-03-10T05:35:27.209Z,1.80
2023-03-10T05:38:05.369Z,1.80
2023-03-10T05:40:42.378Z,1.80
2023-03-10T05:43:30.897Z,1.80
2023-03-10T05:46:03.633Z,1.80
2023-03-10T05:48:35.921Z,1.80
2023-03-10T05:51:11.867Z,1.80
2023-03-10T05:53:41.945Z,1.80
2023-03-10T05:56:14.072Z,1.80
2023-03-10T05:58:46.404Z,1.80
2023-03-10T06:04:06.152Z,1.90
2023-03-10T06:06:54.093Z,1.80
2023-03-10T06:09:26.317Z,1.90
2023-03-10T06:11:56.534Z,1.90
2023-03-10T06:14:26.187Z,1.90
2023-03-10T06:16:56.821Z,2.00
2023-03-10T06:19:27.564Z,2.00
2023-03-10T06:21:58.304Z,2.10
2023-03-10T06:24:43.954Z,2.10
2023-03-10T06:27:12.906Z,2.00
2023-03-10T06:29:42.818Z,2.00
2023-03-10T06:32:12.923Z,2.00
2023-03-10T06:34:43.967Z,2.10
2023-03-10T06:37:15.617Z,2.10
2023-03-10T06:39:45.956Z,2.20
2023-03-10T06:42:15.661Z,2.20
2023-03-10T06:44:44.557Z,2.20
2023-03-10T06:47:15.934Z,2.20
2023-03-10T06:49:46.930Z,2.30
2023-03-10T06:52:19.293Z,2.30
2023-03-10T06:54:49.285Z,2.40
2023-03-10T06:57:22.020Z,2.40
2023-03-10T06:59:56.592Z,2.40
2023-03-10T07:02:29.401Z,2.40
2023-03-10T07:05:01.392Z,2.50
2023-03-10T07:07:34.539Z,2.50
2023-03-10T07:10:04.494Z,2.60
2023-03-10T07:12:37.352Z,2.60
2023-03-10T07:15:18.075Z,2.60
2023-03-10T07:18:14.491Z,2.60
2023-03-10T07:20:46.256Z,2.70
2023-03-10T07:23:18.374Z,2.60
2023-03-10T07:25:50.182Z,2.60
2023-03-10T07:28:46.887Z,2.60
2023-03-10T07:31:18.092Z,2.70
2023-03-10T07:33:47.898Z,2.70
2023-03-10T07:36:20.292Z,2.70
2023-03-10T07:38:58.602Z,2.70
2023-03-10T07:41:29.177Z,2.70
2023-03-10T07:44:18.663Z,2.70
2023-03-10T07:46:49.440Z,2.70
2023-03-10T07:49:22.378Z,2.80
2023-03-10T07:51:55.855Z,2.80
2023-03-10T07:54:30.461Z,2.90
2023-03-10T07:57:07.881Z,2.90
2023-03-10T07:59:39.635Z,2.90
2023-03-10T08:02:12.455Z,2.90
2023-03-10T08:07:27.922Z,2.90
2023-03-10T08:09:59.180Z,2.90
2023-03-10T08:12:28.655Z,2.90
2023-03-10T08:15:09.817Z,3.00
2023-03-10T08:17:40.924Z,3.00
2023-03-10T08:20:15.011Z,3.00
2023-03-10T08:22:45.729Z,3.00
2023-03-10T08:25:29.813Z,3.00
2023-03-10T08:27:58.631Z,3.10
2023-03-10T08:30:28.152Z,3.10
2023-03-10T08:32:59.009Z,3.10
2023-03-10T08:35:28.916Z,3.10
2023-03-10T08:38:02.613Z,3.10
2023-03-10T08:40:37.532Z,3.10
2023-03-10T08:45:57.902Z,3.20
2023-03-10T08:48:30.148Z,3.30
2023-03-10T08:51:00.800Z,3.30
2023-03-10T08:53:31.426Z,3.40
2023-03-10T08:56:03.224Z,3.50
2023-03-10T08:58:42.135Z,3.50
2023-03-10T09:01:15.934Z,3.50
2023-03-10T09:03:49.766Z,3.50
2023-03-10T09:06:21.783Z,3.50
2023-03-10T09:08:53.831Z,3.50
2023-03-10T09:11:26.944Z,3.50
2023-03-10T09:13:57.769Z,3.50
2023-03-10T09:16:30.073Z,3.60
2023-03-10T09:19:00.431Z,3.60
2023-03-10T09:21:33.550Z,3.60
2023-03-10T09:24:05.721Z,3.60
2023-03-10T09:26:42.809Z,3.60
2023-03-10T09:29:27.032Z,3.50
2023-03-10T09:32:09.836Z,3.50
2023-03-10T09:34:46.972Z,3.50
2023-03-10T09:37:15.643Z,3.60
2023-03-10T09:39:46.451Z,3.60
2023-03-10T09:42:44.005Z,3.60
2023-03-10T09:45:37.060Z,3.70
2023-03-10T09:48:29.188Z,3.80
2023-03-10T09:51:05.938Z,3.80
2023-03-10T09:54:04.440Z,3.80
2023-03-10T09:56:35.716Z,3.80
2023-03-10T09:59:11.580Z,3.80
2023-03-10T10:01:45.850Z,3.80
2023-03-10T10:04:22.027Z,3.90
2023-03-10T10:06:54.921Z,4.00
2023-03-10T10:09:31.963Z,4.10
2023-03-10T10:12:16.416Z,4.10
2023-03-10T10:14:57.497Z,4.20
2023-03-10T10:17:53.020Z,4.10
2023-03-10T10:20:34.398Z,4.10
2023-03-10T10:23:23.135Z,4.10
2023-03-10T10:25:54.003Z,4.00
2023-03-10T10:28:33.655Z,4.00
2023-03-10T10:31:25.736Z,4.10
2023-03-10T10:34:04.042Z,4.10
2023-03-10T10:36:38.507Z,4.10
2023-03-10T10:39:28.139Z,4.20
2023-03-10T10:42:15.514Z,4.20
2023-03-10T10:44:47.545Z,4.30
2023-03-10T10:47:31.554Z,4.30
2023-03-10T10:50:23.082Z,4.20
2023-03-10T10:53:19.263Z,4.20
2023-03-10T10:56:06.865Z,4.30
2023-03-10T10:58:40.801Z,4.40
2023-03-10T11:01:15.617Z,4.60
2023-03-10T11:03:50.745Z,4.60
2023-03-10T11:06:29.257Z,4.50
2023-03-10T11:09:09.115Z,4.50
2023-03-10T11:11:43.606Z,4.60
2023-03-10T11:14:39.123Z,4.50
2023-03-10T11:17:14.666Z,4.50
2023-03-10T11:20:03.173Z,4.50
2023-03-10T11:22:46.872Z,4.60
2023-03-10T11:25:27.630Z,4.60
2023-03-10T11:28:32.961Z,4.70
2023-03-10T11:31:13.334Z,4.70
2023-03-10T11:34:05.749Z,4.70
2023-03-10T11:36:55.850Z,4.80
2023-03-10T11:39:42.701Z,4.80
2023-03-10T11:42:27.562Z,4.80
2023-03-10T11:45:14.522Z,4.70
2023-03-10T11:47:58.446Z,4.80
2023-03-10T11:50:38.656Z,4.80
2023-03-10T11:53:17.765Z,4.80
2023-03-10T11:55:48.418Z,4.80
2023-03-10T11:58:30.630Z,4.80
2023-03-10T12:01:01.817Z,4.70
2023-03-10T12:03:47.303Z,4.70
2023-03-10T12:06:21.318Z,4.70
2023-03-10T12:08:57.079Z,4.80
2023-03-10T12:11:30.306Z,4.70
2023-03-10T12:14:01.976Z,4.70
2023-03-10T12:16:33.986Z,4.80
2023-03-10T12:19:06.639Z,4.80
2023-03-10T12:21:36.647Z,4.80
2023-03-10T12:24:49.256Z,4.80
2023-03-10T12:27:20.644Z,4.80
2023-03-10T12:29:51.509Z,4.80
2023-03-10T12:32:48.129Z,4.80
2023-03-10T12:35:49.034Z,4.80
2023-03-10T12:38:39.324Z,4.90
2023-03-10T12:41:14.178Z,4.90
2023-03-10T12:44:06.250Z,5.00
2023-03-10T12:46:56.027Z,4.90
2023-03-10T12:49:33.667Z,4.80
2023-03-10T12:52:26.285Z,4.80
2023-03-10T12:55:24.773Z,4.90
2023-03-10T12:58:31.204Z,4.90
2023-03-10T13:01:08.212Z,4.90
2023-03-10T13:03:44.722Z,5.00
2023-03-10T13:06:23.091Z,5.10
2023-03-10T13:08:53.977Z,5.10
2023-03-10T13:11:37.382Z,5.20
2023-03-10T13:14:17.009Z,5.20
2023-03-10T13:16:55.058Z,5.20
2023-03-10T13:19:25.531Z,5.20
2023-03-10T13:21:55.749Z,5.20
2023-03-10T13:24:34.359Z,5.20
2023-03-10T13:27:27.185Z,5.20
2023-03-10T13:30:02.082Z,5.20
2023-03-10T13:32:34.097Z,5.20
2023-03-10T13:35:25.253Z,5.20
2023-03-10T13:38:13.670Z,5.10
2023-03-10T13:40:46.621Z,5.10
2023-03-10T13:43:37.792Z,5.10
2023-03-10T13:46:18.222Z,5.00
2023-03-10T13:48:51.968Z,4.90
2023-03-10T13:51:32.222Z,4.90
2023-03-10T13:54:22.941Z,4.80
2023-03-10T13:56:54.102Z,4.80
2023-03-10T13:59:27.032Z,4.80
2023-03-10T14:01:59.572Z,4.80
2023-03-10T14:04:51.172Z,4.80
2023-03-10T14:07:27.633Z,4.80
2023-03-10T14:10:19.141Z,4.80
2023-03-10T14:12:53.579Z,4.80
2023-03-10T14:15:27.938Z,4.90
2023-03-10T14:18:23.286Z,4.90
2023-03-10T14:20:55.903Z,4.90
2023-03-10T14:23:27.441Z,4.90
2023-03-10T14:25:58.868Z,4.80
2023-03-10T14:28:29.744Z,4.80
2023-03-10T14:31:01.447Z,4.80
2023-03-10T14:33:34.646Z,4.80
2023-03-10T14:36:11.238Z,4.80
2023-03-10T14:38:43.287Z,4.70
2023-03-10T14:41:13.465Z,4.80
2023-03-10T14:43:44.535Z,4.80
2023-03-10T14:46:14.044Z,4.80
2023-03-10T14:48:47.556Z,4.70
2023-03-10T14:51:34.664Z,4.70
2023-03-10T14:54:13.254Z,4.70
2023-03-10T14:56:45.497Z,4.70
2023-03-10T14:59:17.248Z,4.60
2023-03-10T15:01:49.101Z,4.70
2023-03-10T15:04:22.248Z,4.70
2023-03-10T15:06:53.247Z,4.70
2023-03-10T15:09:24.141Z,4.60
2023-03-10T15:12:00.001Z,4.60
2023-03-10T15:14:31.866Z,4.70
2023-03-10T15:17:05.677Z,4.60
2023-03-10T15:19:41.008Z,4.50
2023-03-10T15:22:19.330Z,4.50
2023-03-10T15:24:49.202Z,4.40
2023-03-10T15:27:23.027Z,4.40
2023-03-10T15:29:55.357Z,4.40
2023-03-10T15:32:26.513Z,4.30
2023-03-10T15:35:06.949Z,4.30
2023-03-10T15:37:37.469Z,4.30
2023-03-10T15:40:08.458Z,4.30
2023-03-10T15:42:39.017Z,4.20
2023-03-10T15:45:12.776Z,4.20
2023-03-10T15:47:45.835Z,4.20
2023-03-10T15:50:24.353Z,4.20
2023-03-10T15:52:55.766Z,4.20
2023-03-10T15:55:27.207Z,4.20
2023-03-10T15:57:59.213Z,4.20
2023-03-10T16:00:30.059Z,4.20
2023-03-10T16:03:03.028Z,4.20
2023-03-10T16:05:41.929Z,4.20
2023-03-10T16:08:13.122Z,4.20
2023-03-10T16:10:43.192Z,4.30
2023-03-10T16:13:14.441Z,4.30
2023-03-10T16:15:45.622Z,4.30
2023-03-10T16:18:17.640Z,4.30
2023-03-10T16:20:58.870Z,4.30
2023-03-10T16:23:31.836Z,4.30
2023-03-10T16:26:08.964Z,4.30
2023-03-10T16:28:44.944Z,4.20
2023-03-10T16:31:19.926Z,4.20
2023-03-10T16:33:52.868Z,4.20
2023-03-10T16:36:26.179Z,4.20
2023-03-10T16:39:06.135Z,4.20
2023-03-10T16:41:36.504Z,4.10
2023-03-10T16:44:21.701Z,4.10
2023-03-10T16:46:50.201Z,4.00
2023-03-10T16:49:20.517Z,4.00
2023-03-10T16:51:55.583Z,3.90
2023-03-10T16:54:25.237Z,3.90
2023-03-10T16:57:01.793Z,3.80
2023-03-10T16:59:37.883Z,3.80
2023-03-10T17:02:08.463Z,3.80
2023-03-10T17:04:38.980Z,3.70
2023-03-10T17:07:20.350Z,3.60
2023-03-10T17:09:53.153Z,3.60
2023-03-10T17:12:25.012Z,3.60
2023-03-10T17:15:01.907Z,3.50
2023-03-10T17:17:33.101Z,3.40
2023-03-10T17:20:05.051Z,3.30
2023-03-10T17:22:39.116Z,3.30
2023-03-10T17:25:17.517Z,3.30
2023-03-10T17:27:53.409Z,3.20
2023-03-10T17:30:25.276Z,3.10
2023-03-10T17:32:57.445Z,3.00
2023-03-10T17:38:15.560Z,3.00
2023-03-10T17:40:44.365Z,3.00
2023-03-10T17:43:32.994Z,3.00
2023-03-10T17:46:09.177Z,2.90
2023-03-10T17:48:42.007Z,2.80
2023-03-10T17:51:19.252Z,2.70
2023-03-10T17:53:59.561Z,2.70
2023-03-10T17:56:30.146Z,2.70
2023-03-10T17:59:01.407Z,2.70
2023-03-10T18:01:36.052Z,2.70
2023-03-10T18:04:08.080Z,2.70
2023-03-10T18:06:47.117Z,2.60
2023-03-10T18:09:27.670Z,2.60
2023-03-10T18:11:58.330Z,2.70
2023-03-10T18:14:30.994Z,2.70
2023-03-10T18:17:03.194Z,2.70
2023-03-10T18:19:35.629Z,2.60
2023-03-10T18:22:18.703Z,2.70
2023-03-10T18:25:12.814Z,2.70
2023-03-10T18:27:43.011Z,2.70
2023-03-10T18:30:15.117Z,2.80
2023-03-10T18:32:53.534Z,2.80
2023-03-10T18:35:24.510Z,2.80
2023-03-10T18:37:54.254Z,2.70
2023-03-10T18:40:29.390Z,2.80
2023-03-10T18:43:02.889Z,2.80
2023-03-10T18:45:42.168Z,2.80
2023-03-10T18:50:58.216Z,2.80
2023-03-10T18:53:27.940Z,2.80
2023-03-10T18:56:14.283Z,2.80
2023-03-10T18:58:46.012Z,2.90
2023-03-10T19:01:20.345Z,2.90
2023-03-10T19:04:06.147Z,3.00
2023-03-10T19:06:36.078Z,3.00
2023-03-10T19:09:08.736Z,3.00
2023-03-10T19:11:48.679Z,3.10
2023-03-10T19:14:34.956Z,3.10
2023-03-10T19:17:12.668Z,3.10
2023-03-10T19:19:43.136Z,3.10
2023-03-10T19:22:14.143Z,3.10
2023-03-10T19:27:30.967Z,3.10
2023-03-10T19:30:10.688Z,3.10
2023-03-10T19:32:49.132Z,3.10
2023-03-10T19:35:19.347Z,3.10
2023-03-10T19:37:58.841Z,3.10
2023-03-10T19:40:31.047Z,3.10
2023-03-10T19:43:01.408Z,3.10
2023-03-10T19:45:31.970Z,3.00
2023-03-10T19:48:01.299Z,3.00
2023-03-10T19:50:38.672Z,3.00
2023-03-10T19:53:10.290Z,3.00
2023-03-10T19:55:41.034Z,3.00
2023-03-10T19:58:14.461Z,3.00
2023-03-10T20:00:46.597Z,3.00
2023-03-10T20:03:17.348Z,3.00
2023-03-10T20:05:48.242Z,3.00
2023-03-10T20:08:44.907Z,3.00
2023-03-10T20:11:16.262Z,3.00
2023-03-10T20:13:59.037Z,3.00
2023-03-10T20:16:30.189Z,3.00
2023-03-10T20:19:01.266Z,3.00
2023-03-10T20:21:31.193Z,3.00
2023-03-10T20:24:02.644Z,3.00
2023-03-10T20:26:33.456Z,2.90
2023-03-10T20:29:06.458Z,2.90
2023-03-10T20:31:35.698Z,2.90
2023-03-10T20:34:07.449Z,3.00
2023-03-10T20:36:39.977Z,3.00
2023-03-10T20:39:12.639Z,3.00
2023-03-10T20:41:44.972Z,3.00
2023-03-10T20:44:22.219Z,3.00
2023-03-10T20:46:54.902Z,3.00
2023-03-10T20:49:24.048Z,3.00
2023-03-10T20:51:54.602Z,3.00
2023-03-10T20:54:25.720Z,3.00
2023-03-10T20:57:07.194Z,2.90
2023-03-10T20:59:39.944Z,2.90
2023-03-10T21:02:28.294Z,2.90
2023-03-10T21:05:01.422Z,2.90
2023-03-10T21:07:35.726Z,2.90
2023-03-10T21:10:19.020Z,2.90
2023-03-10T21:12:56.806Z,2.90
2023-03-10T21:15:36.261Z,2.90
2023-03-10T21:20:58.348Z,2.80
2023-03-10T21:23:37.008Z,2.80
2023-03-10T21:26:14.999Z,2.80
2023-03-10T21:28:44.296Z,2.80
2023-03-10T21:31:22.379Z,2.80
2023-03-10T21:33:55.009Z,2.80
2023-03-10T21:36:25.703Z,2.80
2023-03-10T21:38:55.942Z,2.80
2023-03-10T21:41:30.655Z,2.80
2023-03-10T21:44:01.365Z,2.80
2023-03-10T21:46:41.017Z,2.70
2023-03-10T21:52:01.686Z,2.70
2023-03-10T21:54:31.903Z,2.70
2023-03-10T21:57:00.811Z,2.70
2023-03-10T21:59:31.956Z,2.70
2023-03-10T22:02:29.842Z,2.70
2023-03-10T22:05:03.594Z,2.70
2023-03-10T22:07:32.100Z,2.70
2023-03-10T22:10:01.190Z,2.70
2023-03-10T22:12:33.550Z,2.70
2023-03-10T22:15:04.790Z,2.70
2023-03-10T22:17:37.691Z,2.70
2023-03-10T22:23:11.680Z,2.70
2023-03-10T22:25:41.297Z,2.70
2023-03-10T22:28:11.520Z,2.70
2023-03-10T22:30:42.049Z,2.70
2023-03-10T22:33:12.302Z,2.70
2023-03-10T22:35:50.134Z,2.70
2023-03-10T22:38:21.656Z,2.70
2023-03-10T22:40:52.893Z,2.70
2023-03-10T22:46:12.794Z,2.70
2023-03-10T22:48:44.923Z,2.70
2023-03-10T22:51:20.494Z,2.70
2023-03-10T22:53:52.276Z,2.70
2023-03-10T22:56:22.832Z,2.70
2023-03-10T22:58:53.562Z,2.70
2023-03-10T23:01:31.083Z,2.70
2023-03-10T23:04:15.329Z,2.70
2023-03-10T23:06:44.925Z,2.70
2023-03-10T23:09:16.915Z,2.70
2023-03-10T23:11:49.298Z,2.70
2023-03-10T23:14:19.431Z,2.70
2023-03-10T23:16:56.039Z,2.70
2023-03-10T23:19:42.034Z,2.70
2023-03-10T23:22:12.039Z,2.70
2023-03-10T23:24:57.222Z,2.70
2023-03-10T23:27:32.029Z,2.70
2023-03-10T23:30:07.209Z,2.70
2023-03-10T23:32:38.128Z,2.70
2023-03-10T23:35:19.559Z,2.70
2023-03-10T23:37:49.861Z,2.60
2023-03-10T23:40:27.313Z,2.60
2023-03-10T23:42:59.152Z,2.60
2023-03-10T23:45:35.020Z,2.60
2023-03-10T23:48:09.140Z,2.60
2023-03-10T23:50:44.355Z,2.60
2023-03-10T23:53:20.905Z,2.50
2023-03-10T23:55:50.265Z,2.50
2023-03-10T23:58:23.902Z,2.50
